createdAt,value
2018-09-03T00:00:22.050Z,22.20
2018-09-03T00:02:50.352Z,22.20
2018-09-03T00:05:18.689Z,22.20
2018-09-03T00:07:47.126Z,22.20
2018-09-03T00:10:15.548Z,22.20
2018-09-03T00:12:43.927Z,22.20
2018-09-03T00:15:12.348Z,22.20
2018-09-03T00:17:40.766Z,22.20
2018-09-03T00:20:09.363Z,22.20
2018-09-03T00:22:37.717Z,22.20
2018-09-03T00:25:07.197Z,22.20
2018-09-03T00:27:35.616Z,22.20
2018-09-03T00:30:04.007Z,22.20
2018-09-03T00:32:37.855Z,22.20
2018-09-03T00:35:12.073Z,22.20
2018-09-03T00:37:46.076Z,22.20
2018-09-03T00:40:20.036Z,22.20
2018-09-03T00:42:53.613Z,22.20
2018-09-03T00:45:27.391Z,22.20
2018-09-03T00:47:55.687Z,22.20
2018-09-03T00:50:24.015Z,22.20
2018-09-03T00:52:52.318Z,22.20
2018-09-03T00:55:20.688Z,22.20
2018-09-03T00:57:49.197Z,22.20
2018-09-03T01:00:17.523Z,22.20
2018-09-03T01:02:45.835Z,22.20
2018-09-03T01:05:14.188Z,22.20
2018-09-03T01:07:42.568Z,22.20
2018-09-03T01:10:10.929Z,22.20
2018-09-03T01:12:39.311Z,22.20
2018-09-03T01:15:07.771Z,22.20
2018-09-03T01:17:37.074Z,22.20
2018-09-03T01:20:05.461Z,22.10
2018-09-03T01:22:33.784Z,22.10
2018-09-03T01:25:02.180Z,22.10
2018-09-03T01:27:30.527Z,22.10
2018-09-03T01:29:59.039Z,22.00
2018-09-03T01:32:27.571Z,22.10
2018-09-03T01:34:55.883Z,22.10
2018-09-03T01:37:24.178Z,22.00
2018-09-03T01:39:52.578Z,22.00
2018-09-03T01:42:20.887Z,22.10
2018-09-03T01:44:49.203Z,22.10
2018-09-03T01:47:17.576Z,22.10
2018-09-03T01:49:45.863Z,22.10
2018-09-03T01:52:14.168Z,22.10
2018-09-03T01:54:42.450Z,22.10
2018-09-03T01:57:10.826Z,22.10
2018-09-03T01:59:39.325Z,22.10
2018-09-03T02:02:07.892Z,22.10
2018-09-03T02:04:36.278Z,22.00
2018-09-03T02:07:04.597Z,22.10
2018-09-03T02:09:32.980Z,22.00
2018-09-03T02:12:01.298Z,22.00
2018-09-03T02:14:29.603Z,22.00
2018-09-03T02:16:57.920Z,22.10
2018-09-03T02:19:26.231Z,22.00
2018-09-03T02:21:54.648Z,22.00
2018-09-03T02:24:23.073Z,22.00
2018-09-03T02:26:51.658Z,21.90
2018-09-03T02:29:19.960Z,21.90
2018-09-03T02:31:48.267Z,21.90
2018-09-03T02:34:16.633Z,21.90
2018-09-03T02:36:45.035Z,21.90
2018-09-03T02:39:14.234Z,21.80
2018-09-03T02:41:42.566Z,21.80
2018-09-03T02:44:10.903Z,21.80
2018-09-03T02:46:39.336Z,21.80
2018-09-03T02:49:07.758Z,21.90
2018-09-03T02:51:36.196Z,21.90
2018-09-03T02:54:04.519Z,21.80
2018-09-03T02:56:32.962Z,21.80
2018-09-03T02:59:01.279Z,21.90
2018-09-03T03:01:29.663Z,21.90
2018-09-03T03:10:57.434Z,21.90
2018-09-03T03:13:25.747Z,21.60
2018-09-03T03:15:54.127Z,21.60
2018-09-03T03:18:22.456Z,21.50
2018-09-03T03:20:50.791Z,21.60
2018-09-03T03:23:19.184Z,21.60
2018-09-03T03:25:47.522Z,21.60
2018-09-03T03:28:15.927Z,21.60
2018-09-03T03:30:44.248Z,21.60
2018-09-03T03:33:12.620Z,21.60
2018-09-03T03:35:41.116Z,21.60
2018-09-03T03:38:09.515Z,21.60
2018-09-03T03:40:38.332Z,21.60
2018-09-03T03:43:06.736Z,21.60
2018-09-03T03:45:35.076Z,21.60
2018-09-03T03:48:03.402Z,21.60
2018-09-03T03:50:32.002Z,21.70
2018-09-03T03:53:00.387Z,21.70
2018-09-03T03:55:28.747Z,21.70
2018-09-03T03:57:57.083Z,21.70
2018-09-03T04:00:25.388Z,21.70
2018-09-03T04:02:53.681Z,21.70
2018-09-03T04:05:22.062Z,21.70
2018-09-03T04:07:50.539Z,21.70
2018-09-03T04:10:19.051Z,21.80
2018-09-03T04:12:52.821Z,21.80
2018-09-03T04:15:21.180Z,21.80
2018-09-03T04:17:49.790Z,21.90
2018-09-03T04:20:18.076Z,21.90
2018-09-03T04:22:46.408Z,21.90
2018-09-03T04:25:14.780Z,21.90
2018-09-03T04:27:43.176Z,21.80
2018-09-03T04:30:11.805Z,21.80
2018-09-03T04:32:40.152Z,21.80
2018-09-03T04:35:08.535Z,21.80
2018-09-03T04:37:36.887Z,21.80
2018-09-03T04:40:06.038Z,21.80
2018-09-03T04:42:34.598Z,21.80
2018-09-03T04:45:02.956Z,21.80
2018-09-03T04:47:31.258Z,21.80
2018-09-03T04:49:59.622Z,21.80
2018-09-03T04:52:27.951Z,21.80
2018-09-03T04:54:56.531Z,21.80
2018-09-03T04:57:24.916Z,21.80
2018-09-03T04:59:53.234Z,21.80
2018-09-03T05:02:21.523Z,21.80
2018-09-03T05:04:49.958Z,21.80
2018-09-03T05:07:18.298Z,21.70
2018-09-03T05:09:46.887Z,21.70
2018-09-03T05:12:15.177Z,21.70
2018-09-03T05:14:43.474Z,21.60
2018-09-03T05:17:12.069Z,21.60
2018-09-03T05:19:40.444Z,21.70
2018-09-03T05:22:08.842Z,21.70
2018-09-03T05:24:37.220Z,21.70
2018-09-03T05:27:05.564Z,21.70
2018-09-03T05:29:33.939Z,21.70
2018-09-03T05:32:02.288Z,21.70
2018-09-03T05:34:30.619Z,21.70
2018-09-03T05:36:58.911Z,21.70
2018-09-03T05:39:27.372Z,21.60
2018-09-03T05:41:55.736Z,21.70
2018-09-03T05:44:24.064Z,21.70
2018-09-03T05:46:52.415Z,21.70
2018-09-03T05:49:20.775Z,21.70
2018-09-03T05:51:49.077Z,21.70
2018-09-03T05:54:17.385Z,21.80
2018-09-03T05:56:47.156Z,21.80
2018-09-03T05:59:15.669Z,21.80
2018-09-03T06:01:43.924Z,21.80
2018-09-03T06:04:12.731Z,21.80
2018-09-03T06:06:41.068Z,21.80
2018-09-03T06:09:11.203Z,21.90
2018-09-03T06:11:40.206Z,21.90
2018-09-03T06:14:08.913Z,21.90
2018-09-03T06:16:37.352Z,21.90
2018-09-03T06:19:05.734Z,22.00
2018-09-03T06:21:34.072Z,22.00
2018-09-03T06:24:02.611Z,22.00
2018-09-03T06:26:30.952Z,22.10
2018-09-03T06:28:59.342Z,22.10
2018-09-03T06:31:32.840Z,22.10
2018-09-03T06:34:07.983Z,22.10
2018-09-03T06:36:39.702Z,22.10
2018-09-03T06:39:08.926Z,22.10
2018-09-03T06:41:37.335Z,22.10
2018-09-03T06:44:05.726Z,22.20
2018-09-03T06:46:34.045Z,22.20
2018-09-03T06:49:02.463Z,22.20
2018-09-03T06:51:30.980Z,22.20
2018-09-03T06:53:59.357Z,22.20
2018-09-03T06:56:27.662Z,22.20
2018-09-03T06:58:55.995Z,22.20
2018-09-03T07:01:24.468Z,22.30
2018-09-03T07:03:52.804Z,22.30
2018-09-03T07:06:21.179Z,22.40
2018-09-03T07:08:49.470Z,22.40
2018-09-03T07:11:17.786Z,22.50
2018-09-03T07:13:46.141Z,22.50
2018-09-03T07:16:14.701Z,22.60
2018-09-03T07:18:43.054Z,22.60
2018-09-03T07:21:11.403Z,22.70
2018-09-03T07:23:40.298Z,22.70
2018-09-03T07:26:08.907Z,22.80
2018-09-03T07:28:37.328Z,22.80
2018-09-03T07:31:05.816Z,22.80
2018-09-03T07:33:35.115Z,22.90
2018-09-03T07:36:03.471Z,22.80
2018-09-03T07:38:32.067Z,22.90
2018-09-03T07:41:00.694Z,22.90
2018-09-03T07:43:29.455Z,22.90
2018-09-03T07:45:57.903Z,22.90
2018-09-03T07:48:26.216Z,23.00
2018-09-03T07:50:55.119Z,23.00
2018-09-03T07:53:23.516Z,23.10
2018-09-03T07:55:51.888Z,23.20
2018-09-03T07:58:20.197Z,23.30
2018-09-03T08:00:48.618Z,23.30
2018-09-03T08:03:17.015Z,23.30
2018-09-03T08:05:45.529Z,23.40
2018-09-03T08:08:13.976Z,23.40
2018-09-03T08:10:42.493Z,23.50
2018-09-03T08:13:15.305Z,23.60
2018-09-03T08:15:44.058Z,23.70
2018-09-03T08:18:12.498Z,23.70
2018-09-03T08:20:41.084Z,23.80
2018-09-03T08:23:09.443Z,23.80
2018-09-03T08:25:37.848Z,23.90
2018-09-03T08:28:06.910Z,23.90
2018-09-03T08:30:35.496Z,24.00
2018-09-03T08:33:04.142Z,24.10
2018-09-03T08:35:32.606Z,24.20
2018-09-03T08:38:01.132Z,24.20
2018-09-03T08:40:29.608Z,24.20
2018-09-03T08:42:58.185Z,24.30
2018-09-03T08:45:26.820Z,24.40
2018-09-03T08:47:55.300Z,24.50
2018-09-03T08:50:23.925Z,24.60
2018-09-03T08:52:52.421Z,24.70
2018-09-03T08:55:21.124Z,24.70
2018-09-03T08:57:49.483Z,24.90
2018-09-03T09:00:18.071Z,24.90
2018-09-03T09:02:46.486Z,25.10
2018-09-03T09:05:15.464Z,25.20
2018-09-03T09:07:43.938Z,25.40
2018-09-03T09:10:12.516Z,25.70
2018-09-03T09:12:41.224Z,26.20
2018-09-03T09:15:09.773Z,26.80
2018-09-03T09:17:38.655Z,27.50
2018-09-03T09:20:07.140Z,28.00
2018-09-03T09:22:35.616Z,28.30
2018-09-03T09:25:04.299Z,28.40
2018-09-03T09:27:32.670Z,28.50
2018-09-03T09:30:01.050Z,28.50
2018-09-03T09:32:29.388Z,28.60
2018-09-03T09:34:58.013Z,28.80
2018-09-03T09:37:26.315Z,29.30
2018-09-03T09:39:55.203Z,30.00
2018-09-03T09:42:23.544Z,30.90
2018-09-03T09:44:52.277Z,31.80
2018-09-03T09:47:20.868Z,32.80
2018-09-03T09:49:49.247Z,33.50
2018-09-03T09:52:17.905Z,33.90
2018-09-03T09:54:46.424Z,34.40
2018-09-03T09:57:14.788Z,34.90
2018-09-03T09:59:43.113Z,35.20
2018-09-03T10:02:11.900Z,35.10
2018-09-03T10:04:40.571Z,35.10
2018-09-03T10:07:09.591Z,35.10
2018-09-03T10:09:39.391Z,35.00
2018-09-03T10:12:09.006Z,35.10
2018-09-03T10:14:39.095Z,35.00
2018-09-03T10:17:07.827Z,34.90
2018-09-03T10:19:37.118Z,34.70
2018-09-03T10:22:08.034Z,34.60
2018-09-03T10:24:40.869Z,34.60
2018-09-03T10:27:10.312Z,34.40
2018-09-03T10:29:41.131Z,34.40
2018-09-03T10:32:13.583Z,34.20
2018-09-03T10:34:43.700Z,34.20
2018-09-03T10:37:13.982Z,34.20
2018-09-03T10:39:43.229Z,34.20
2018-09-03T10:42:14.233Z,33.80
2018-09-03T10:44:42.843Z,33.50
2018-09-03T10:47:12.283Z,33.30
2018-09-03T10:49:43.379Z,32.90
2018-09-03T10:52:15.932Z,32.60
2018-09-03T10:54:45.526Z,32.60
2018-09-03T10:57:15.948Z,32.90
2018-09-03T10:59:44.630Z,33.60
2018-09-03T11:02:13.179Z,34.70
2018-09-03T11:04:41.734Z,35.90
2018-09-03T11:07:10.260Z,37.00
2018-09-03T11:09:38.786Z,38.00
2018-09-03T11:12:07.976Z,38.70
2018-09-03T11:14:36.295Z,38.70
2018-09-03T11:17:04.696Z,38.40
2018-09-03T11:19:35.841Z,37.80
2018-09-03T11:22:04.159Z,37.10
2018-09-03T11:24:32.473Z,36.30
2018-09-03T11:27:01.035Z,35.60
2018-09-03T11:29:29.330Z,34.90
2018-09-03T11:31:57.671Z,34.30
2018-09-03T11:34:26.093Z,33.70
2018-09-03T11:36:54.405Z,33.20
2018-09-03T11:39:22.858Z,32.60
2018-09-03T11:41:51.182Z,32.20
2018-09-03T11:44:19.520Z,31.80
2018-09-03T11:46:47.820Z,31.60
2018-09-03T11:49:16.156Z,31.50
2018-09-03T11:51:44.605Z,31.40
2018-09-03T11:54:13.083Z,31.40
2018-09-03T11:56:41.424Z,31.50
2018-09-03T11:59:10.086Z,31.50
2018-09-03T12:01:38.631Z,31.50
2018-09-03T12:04:07.286Z,31.40
2018-09-03T12:06:35.720Z,31.30
2018-09-03T12:09:05.225Z,31.20
2018-09-03T12:11:33.566Z,31.10
2018-09-03T12:14:03.772Z,31.00
2018-09-03T12:16:32.102Z,30.90
2018-09-03T12:19:00.418Z,30.90
2018-09-03T12:21:28.799Z,30.90
2018-09-03T12:23:57.220Z,30.70
2018-09-03T12:26:25.532Z,30.60
2018-09-03T12:28:53.811Z,30.50
2018-09-03T12:31:22.210Z,30.30
2018-09-03T12:33:50.475Z,30.10
2018-09-03T12:36:18.851Z,29.90
2018-09-03T12:38:47.158Z,29.60
2018-09-03T12:41:15.492Z,29.50
2018-09-03T12:43:44.141Z,29.30
2018-09-03T12:46:12.543Z,29.20
2018-09-03T12:48:40.845Z,29.10
2018-09-03T12:51:09.299Z,29.00
2018-09-03T12:53:37.604Z,28.80
2018-09-03T12:56:05.999Z,28.80
2018-09-03T12:58:34.647Z,28.70
2018-09-03T13:01:03.044Z,28.70
2018-09-03T13:03:31.348Z,28.60
2018-09-03T13:05:59.634Z,28.70
2018-09-03T13:08:28.107Z,28.60
2018-09-03T13:10:56.408Z,28.60
2018-09-03T13:13:24.725Z,28.50
2018-09-03T13:15:53.007Z,28.40
2018-09-03T13:18:21.389Z,28.30
2018-09-03T13:20:49.667Z,28.20
2018-09-03T13:23:17.978Z,28.10
2018-09-03T13:25:47.726Z,28.10
2018-09-03T13:28:22.432Z,28.10
2018-09-03T13:30:54.347Z,28.10
2018-09-03T13:33:25.033Z,28.20
2018-09-03T13:35:56.612Z,28.30
2018-09-03T13:38:31.535Z,28.30
2018-09-03T13:41:03.941Z,28.40
2018-09-03T13:43:37.358Z,28.40
2018-09-03T13:46:05.996Z,28.40
2018-09-03T13:48:35.648Z,28.40
2018-09-03T13:51:04.184Z,28.40
2018-09-03T13:53:32.573Z,28.30
2018-09-03T13:56:00.915Z,28.30
2018-09-03T13:58:29.304Z,28.30
2018-09-03T14:00:57.682Z,28.40
2018-09-03T14:03:26.374Z,28.40
2018-09-03T14:05:55.176Z,28.50
2018-09-03T14:08:23.770Z,28.50
2018-09-03T14:10:52.112Z,28.60
2018-09-03T14:13:20.413Z,28.80
2018-09-03T14:15:48.772Z,29.10
2018-09-03T14:18:17.139Z,29.60
2018-09-03T14:20:45.483Z,30.10
2018-09-03T14:23:13.873Z,30.60
2018-09-03T14:25:42.504Z,31.10
2018-09-03T14:28:11.444Z,31.40
2018-09-03T14:30:39.858Z,31.60
2018-09-03T14:33:08.503Z,31.50
2018-09-03T14:35:37.374Z,31.30
2018-09-03T14:38:05.841Z,31.20
2018-09-03T14:40:34.168Z,30.90
2018-09-03T14:43:02.745Z,30.70
2018-09-03T14:45:31.255Z,30.60
2018-09-03T14:47:59.746Z,30.40
2018-09-03T14:50:28.359Z,30.30
2018-09-03T14:52:56.815Z,30.20
2018-09-03T14:55:25.135Z,30.20
2018-09-03T14:57:53.471Z,30.10
2018-09-03T15:00:21.870Z,30.10
2018-09-03T15:02:50.157Z,30.00
2018-09-03T15:05:18.551Z,29.80
2018-09-03T15:07:47.267Z,29.70
2018-09-03T15:10:15.677Z,29.70
2018-09-03T15:12:44.078Z,29.60
2018-09-03T15:15:12.421Z,29.50
2018-09-03T15:17:40.781Z,29.40
2018-09-03T15:20:09.092Z,29.40
2018-09-03T15:22:40.738Z,29.20
2018-09-03T15:25:09.075Z,29.10
2018-09-03T15:27:37.480Z,29.00
2018-09-03T15:30:06.265Z,29.00
2018-09-03T15:32:34.595Z,29.00
2018-09-03T15:35:02.871Z,28.90
2018-09-03T15:37:31.235Z,28.90
2018-09-03T15:39:59.567Z,29.00
2018-09-03T15:42:27.887Z,29.10
2018-09-03T15:44:56.223Z,29.20
2018-09-03T15:47:24.523Z,29.20
2018-09-03T15:49:53.416Z,29.30
2018-09-03T15:52:21.897Z,29.30
2018-09-03T15:54:50.251Z,29.20
2018-09-03T15:57:19.290Z,29.20
2018-09-03T15:59:47.604Z,29.00
2018-09-03T16:02:15.993Z,29.00
2018-09-03T16:04:44.387Z,28.90
2018-09-03T16:07:12.724Z,28.70
2018-09-03T16:09:41.076Z,28.60
2018-09-03T16:12:09.383Z,28.50
2018-09-03T16:14:37.700Z,28.40
2018-09-03T16:17:06.039Z,28.40
2018-09-03T16:19:34.315Z,28.40
2018-09-03T16:22:02.659Z,28.30
2018-09-03T16:24:31.049Z,28.40
2018-09-03T16:26:59.765Z,28.40
2018-09-03T16:29:28.074Z,28.40
2018-09-03T16:31:56.595Z,28.30
2018-09-03T16:34:24.913Z,28.30
2018-09-03T16:36:53.400Z,28.30
2018-09-03T16:39:21.760Z,28.20
2018-09-03T16:41:50.302Z,28.20
2018-09-03T16:44:18.788Z,28.10
2018-09-03T16:46:47.130Z,27.90
2018-09-03T16:49:15.551Z,27.90
2018-09-03T16:51:44.624Z,27.80
2018-09-03T16:54:13.156Z,27.70
2018-09-03T16:56:41.516Z,27.60
2018-09-03T16:59:09.824Z,27.60
2018-09-03T17:01:38.162Z,27.50
2018-09-03T17:04:06.921Z,27.40
2018-09-03T17:06:35.287Z,27.40
2018-09-03T17:09:04.468Z,27.30
2018-09-03T17:11:32.788Z,27.30
2018-09-03T17:14:01.132Z,27.20
2018-09-03T17:16:29.628Z,27.10
2018-09-03T17:18:58.024Z,27.10
2018-09-03T17:21:26.355Z,27.00
2018-09-03T17:23:54.915Z,26.90
2018-09-03T17:26:23.228Z,26.80
2018-09-03T17:28:51.688Z,26.70
2018-09-03T17:31:20.080Z,26.70
2018-09-03T17:33:48.423Z,26.60
2018-09-03T17:36:16.724Z,26.50
2018-09-03T17:38:45.148Z,26.40
2018-09-03T17:41:13.553Z,26.40
2018-09-03T17:43:41.944Z,26.30
2018-09-03T17:46:10.340Z,26.20
2018-09-03T17:48:38.716Z,26.10
2018-09-03T17:51:07.051Z,26.00
2018-09-03T17:53:35.422Z,26.00
2018-09-03T17:56:03.910Z,25.90
2018-09-03T17:58:32.361Z,25.80
2018-09-03T18:01:01.120Z,25.80
2018-09-03T18:03:29.500Z,25.70
2018-09-03T18:05:57.837Z,25.70
2018-09-03T18:08:26.915Z,25.60
2018-09-03T18:10:55.163Z,25.60
2018-09-03T18:13:23.932Z,25.50
2018-09-03T18:15:52.265Z,25.50
2018-09-03T18:18:20.688Z,25.40
2018-09-03T18:20:49.326Z,25.40
2018-09-03T18:23:17.596Z,25.40
2018-09-03T18:25:46.165Z,25.30
2018-09-03T18:28:14.725Z,25.30
2018-09-03T18:30:43.044Z,25.20
2018-09-03T18:33:11.583Z,25.20
2018-09-03T18:35:40.155Z,25.20
2018-09-03T18:38:08.505Z,25.20
2018-09-03T18:40:36.850Z,25.10
2018-09-03T18:43:05.173Z,25.10
2018-09-03T18:45:33.463Z,25.10
2018-09-03T18:48:01.773Z,25.00
2018-09-03T18:50:30.117Z,25.10
2018-09-03T18:52:58.468Z,25.00
2018-09-03T18:55:26.795Z,25.00
2018-09-03T18:57:55.143Z,25.00
2018-09-03T19:00:23.662Z,24.90
2018-09-03T19:02:52.091Z,24.90
2018-09-03T19:05:20.697Z,24.90
2018-09-03T19:07:49.030Z,24.90
2018-09-03T19:10:17.553Z,24.90
2018-09-03T19:12:45.875Z,24.90
2018-09-03T19:15:14.241Z,24.90
2018-09-03T19:17:42.515Z,24.90
2018-09-03T19:20:10.834Z,24.90
2018-09-03T19:22:39.178Z,24.90
2018-09-03T19:25:07.531Z,24.90
2018-09-03T19:27:35.916Z,24.90
2018-09-03T19:30:04.567Z,24.80
2018-09-03T19:32:32.867Z,24.80
2018-09-03T19:35:01.156Z,24.80
2018-09-03T19:37:29.486Z,24.80
2018-09-03T19:39:57.837Z,24.70
2018-09-03T19:42:26.128Z,24.70
2018-09-03T19:44:54.439Z,24.80
2018-09-03T19:47:23.890Z,24.70
2018-09-03T19:49:52.415Z,24.70
2018-09-03T19:52:20.710Z,24.70
2018-09-03T19:54:49.075Z,24.70
2018-09-03T19:57:17.397Z,24.70
2018-09-03T19:59:45.908Z,24.70
2018-09-03T20:02:14.413Z,24.60
2018-09-03T20:04:42.715Z,24.60
2018-09-03T20:07:11.067Z,24.60
2018-09-03T20:09:39.516Z,24.60
2018-09-03T20:12:07.955Z,24.60
2018-09-03T20:14:36.516Z,24.60
2018-09-03T20:17:05.071Z,24.60
2018-09-03T20:19:33.334Z,24.60
2018-09-03T20:22:01.708Z,24.60
2018-09-03T20:24:30.247Z,24.60
2018-09-03T20:26:58.719Z,24.60
2018-09-03T20:29:27.011Z,24.60
2018-09-03T20:31:55.344Z,24.50
2018-09-03T20:34:23.653Z,24.60
2018-09-03T20:36:52.087Z,24.60
2018-09-03T20:39:20.503Z,24.50
2018-09-03T20:41:48.821Z,24.50
2018-09-03T20:44:17.195Z,24.50
2018-09-03T20:46:45.495Z,24.50
2018-09-03T20:49:13.814Z,24.40
2018-09-03T20:51:42.226Z,24.40
2018-09-03T20:54:10.527Z,24.40
2018-09-03T20:56:39.117Z,24.40
2018-09-03T20:59:07.522Z,24.40
2018-09-03T21:01:35.994Z,24.40
2018-09-03T21:04:04.346Z,24.40
2018-09-03T21:06:32.717Z,24.30
2018-09-03T21:09:01.023Z,24.30
2018-09-03T21:11:29.360Z,24.30
2018-09-03T21:13:57.696Z,24.30
2018-09-03T21:16:25.970Z,24.20
2018-09-03T21:18:54.268Z,24.20
2018-09-03T21:21:22.614Z,24.20
2018-09-03T21:23:51.105Z,24.20
2018-09-03T21:26:19.549Z,24.20
2018-09-03T21:28:47.900Z,24.20
2018-09-03T21:31:16.293Z,24.20
2018-09-03T21:33:44.639Z,24.20
2018-09-03T21:36:13.003Z,24.10
2018-09-03T21:38:41.408Z,24.10
2018-09-03T21:41:10.206Z,24.10
2018-09-03T21:43:38.514Z,24.00
2018-09-03T21:46:07.275Z,24.00
2018-09-03T21:48:35.712Z,24.00
2018-09-03T21:51:04.115Z,24.00
2018-09-03T21:53:32.435Z,24.00
2018-09-03T21:56:01.216Z,24.00
2018-09-03T21:58:29.544Z,24.00
2018-09-03T22:00:57.895Z,23.90
2018-09-03T22:03:26.584Z,23.90
2018-09-03T22:05:54.873Z,23.90
2018-09-03T22:08:23.307Z,23.90
2018-09-03T22:10:51.735Z,24.00
2018-09-03T22:13:20.164Z,23.90
2018-09-03T22:15:48.536Z,23.90
2018-09-03T22:18:16.976Z,24.00
2018-09-03T22:20:45.295Z,24.00
2018-09-03T22:23:13.725Z,24.00
2018-09-03T22:25:42.163Z,24.00
2018-09-03T22:28:10.468Z,23.90
2018-09-03T22:30:38.792Z,23.90
2018-09-03T22:33:07.140Z,23.90
2018-09-03T22:35:35.498Z,23.90
2018-09-03T22:38:03.895Z,23.90
2018-09-03T22:40:32.233Z,23.80
2018-09-03T22:43:00.532Z,23.90
2018-09-03T22:45:28.840Z,23.80
2018-09-03T22:47:57.205Z,23.80
2018-09-03T22:50:25.479Z,23.90
2018-09-03T22:52:53.823Z,23.90
2018-09-03T22:55:22.159Z,23.90
2018-09-03T22:57:50.563Z,23.80
2018-09-03T23:00:18.927Z,23.80
2018-09-03T23:02:47.980Z,23.80
2018-09-03T23:05:16.396Z,23.80
2018-09-03T23:07:44.722Z,23.70
2018-09-03T23:10:13.023Z,23.70
2018-09-03T23:12:41.376Z,23.70
2018-09-03T23:15:10.075Z,23.60
2018-09-03T23:17:38.462Z,23.60
2018-09-03T23:20:06.884Z,23.60
2018-09-03T23:22:35.359Z,23.60
2018-09-03T23:25:03.823Z,23.50
2018-09-03T23:27:32.244Z,23.50
2018-09-03T23:30:00.623Z,23.50
2018-09-03T23:32:28.966Z,23.40
2018-09-03T23:34:57.245Z,23.40
2018-09-03T23:37:25.739Z,23.40
2018-09-03T23:39:54.297Z,23.50
2018-09-03T23:42:22.616Z,23.50
2018-09-03T23:44:50.909Z,23.50
2018-09-03T23:47:19.274Z,23.40
2018-09-03T23:49:47.746Z,23.40
2018-09-03T23:52:16.654Z,23.50
2018-09-03T23:54:45.221Z,23.50
2018-09-03T23:57:13.538Z,23.50
2018-09-03T23:59:41.880Z,23.50
